Time,TemperatureF,DewpointF,PressureIn,WindDirection,WindDirectionDegrees,WindSpeedMPH,WindSpeedGustMPH,Humidity,HourlyPrecipIn,Conditions,Clouds,dailyrainin,SoftwareType,DateUTC
2013-05-14 10:50:00,52.2,22.4,29.79,North,0,7.3,7.3,31,0.00,CLR,,0.00,WeatherDisplay:10.37,2013-05-14 14:50:00,
2013-05-14 10:51:00,52.2,22.4,29.79,North,0,7.3,7.3,31,0.00,CLR,,0.00,WeatherDisplay:10.37,2013-05-14 14:51:00,
2013-05-14 10:56:00,52.3,21.8,29.80,SSW,202,7.3,7.3,30,0.00,CLR,,0.00,WeatherDisplay:10.37,2013-05-14 14:56:00,
2013-05-14 11:01:00,52.5,22.7,29.78,South,180,7.3,7.3,31,0.00,CLR,,0.00,WeatherDisplay:10.37,2013-05-14 15:01:00,
2013-05-14 11:06:00,53.1,23.2,29.77,East,90,7.3,7.3,31,0.00,CLR,,0.00,WeatherDisplay:10.37,2013-05-14 15:06:00,
2013-05-14 11:11:00,53.2,23.3,29.77,NE,45,6.9,6.9,31,0.00,CLR,,0.00,WeatherDisplay:10.37,2013-05-14 15:11:00,
2013-05-14 11:16:00,53.8,23.8,29.75,SE,135,6.3,6.3,31,0.00,CLR,,0.00,WeatherDisplay:10.37,2013-05-14 15:16:00,
2013-05-14 11:21:00,54.3,24.3,29.75,SSE,157,6.3,6.3,31,0.00,CLR,,0.00,WeatherDisplay:10.37,2013-05-14 15:21:00,
2013-05-14 11:26:00,54.9,24.8,29.74,SE,135,6.3,6.3,31,0.00,CLR,,0.00,WeatherDisplay:10.37,2013-05-14 15:26:00,
2013-05-14 11:31:00,55.0,24.9,29.73,SSW,202,7.1,7.1,31,0.00,CLR,,0.00,WeatherDisplay:10.37,2013-05-14 15:31:00,
2013-05-14 11:36:00,55.4,25.2,29.73,ESE,112,7.1,7.1,31,0.00,CLR,,0.00,WeatherDisplay:10.37,2013-05-14 15:36:00,
2013-05-14 11:41:00,55.8,25.5,29.73,SE,135,7.1,7.1,31,0.00,CLR,,0.00,WeatherDisplay:10.37,2013-05-14 15:41:00,
2013-05-14 11:46:00,55.8,25.5,29.72,SSE,157,7.3,7.3,31,0.00,CLR,,0.00,WeatherDisplay:10.37,2013-05-14 15:46:00,
2013-05-14 11:51:00,55.9,25.7,29.72,West,270,7.3,7.3,31,0.00,CLR,,0.00,WeatherDisplay:10.37,2013-05-14 15:51:00,
2013-05-14 11:56:00,56.1,25.9,29.72,ESE,112,7.3,7.3,31,0.00,CLR,,0.00,WeatherDisplay:10.37,2013-05-14 15:56:00,
2013-05-14 12:01:00,56.5,26.2,29.72,SSW,202,8.1,8.1,31,0.00,CLR,,0.00,WeatherDisplay:10.37,2013-05-14 16:01:00,
2013-05-14 12:06:00,56.7,26.3,29.71,ESE,112,8.1,8.1,31,0.00,CLR,,0.00,WeatherDisplay:10.37,2013-05-14 16:06:00,
2013-05-14 12:11:00,56.7,24.7,29.77,WSW,247,5.8,5.8,29,0.00,CLR,,0.00,WeatherDisplay:10.37,2013-05-14 16:11:00,
2013-05-14 12:16:00,56.8,24.9,29.76,South,180,5.8,5.8,29,0.00,CLR,,0.00,WeatherDisplay:10.37,2013-05-14 16:16:00,
2013-05-14 12:21:00,57.2,25.2,29.76,East,90,5.8,5.8,29,0.00,CLR,,0.00,WeatherDisplay:10.37,2013-05-14 16:21:00,
2013-05-14 12:26:00,57.4,25.3,29.75,East,90,5.8,5.8,29,0.00,CLR,,0.00,WeatherDisplay:10.37,2013-05-14 16:26:00,
2013-05-14 12:31:00,57.6,26.3,29.76,SE,135,5.8,5.8,30,0.00,CLR,,0.00,WeatherDisplay:10.37,2013-05-14 16:31:00,
2013-05-14 12:36:00,57.7,26.5,29.76,SSE,157,5.8,5.8,30,0.00,CLR,,0.00,WeatherDisplay:10.37,2013-05-14 16:36:00,
2013-05-14 12:41:00,58.1,26.8,29.76,SSE,157,6.9,6.9,30,0.00,CLR,,0.00,WeatherDisplay:10.37,2013-05-14 16:41:00,
2013-05-14 12:46:00,58.3,27.7,29.77,East,90,6.9,6.9,31,0.00,CLR,,0.00,WeatherDisplay:10.37,2013-05-14 16:46:00,
2013-05-14 12:51:00,58.5,27.9,29.77,SSE,157,6.9,6.9,31,0.00,CLR,,0.00,WeatherDisplay:10.37,2013-05-14 16:51:00,
2013-05-14 12:56:00,58.5,27.9,29.76,SSE,157,6.9,6.9,31,0.00,CLR,,0.00,WeatherDisplay:10.37,2013-05-14 16:56:00,
2013-05-14 13:01:00,59.7,29.0,29.76,SSE,157,6.9,6.9,31,0.00,CLR,,0.00,WeatherDisplay:10.37,2013-05-14 17:01:00,
2013-05-14 13:06:00,60.4,28.8,29.74,ESE,112,8.1,8.1,30,0.00,CLR,,0.00,WeatherDisplay:10.37,2013-05-14 17:06:00,
2013-05-14 13:11:00,61.0,29.3,29.72,SW,225,1.7,1.7,30,0.00,CLR,,0.00,WeatherDisplay:10.37,2013-05-14 17:11:00,
2013-05-14 13:16:00,63.0,31.8,29.73,South,180,4.0,4.0,31,0.00,CLR,,0.00,WeatherDisplay:10.37,2013-05-14 17:16:00,
2013-05-14 13:21:00,63.7,32.5,29.73,SSW,202,4.0,4.0,31,0.00,CLR,,0.00,WeatherDisplay:10.37,2013-05-14 17:21:00,
2013-05-14 13:26:00,64.2,32.9,29.74,SW,225,6.9,6.9,31,0.00,CLR,,0.00,WeatherDisplay:10.37,2013-05-14 17:26:00,
2013-05-14 13:31:00,64.9,33.6,29.74,WSW,247,6.9,6.9,31,0.00,CLR,,0.00,WeatherDisplay:10.37,2013-05-14 17:31:00,
2013-05-14 13:36:00,65.7,34.2,29.73,SSE,157,6.9,6.9,31,0.00,CLR,,0.00,WeatherDisplay:10.37,2013-05-14 17:36:00,
2013-05-14 13:41:00,66.9,35.3,29.73,SSW,202,6.9,6.9,31,0.00,CLR,,0.00,WeatherDisplay:10.37,2013-05-14 17:41:00,
2013-05-14 13:46:00,66.9,35.3,29.73,SE,135,6.9,6.9,31,0.00,CLR,,0.00,WeatherDisplay:10.37,2013-05-14 17:46:00,
2013-05-14 13:51:00,66.9,35.3,29.72,SE,135,6.9,6.9,31,0.00,CLR,,0.00,WeatherDisplay:10.37,2013-05-14 17:51:00,
2013-05-14 13:56:00,68.2,36.4,29.71,SSW,202,6.9,6.9,31,0.00,CLR,,0.00,WeatherDisplay:10.37,2013-05-14 17:56:00,
2013-05-14 14:01:00,68.7,36.8,29.70,SW,225,6.9,6.9,31,0.00,CLR,,0.00,WeatherDisplay:10.37,2013-05-14 18:01:00,
2013-05-14 14:06:00,68.9,37.0,29.69,SE,135,6.9,6.9,31,0.00,CLR,,0.00,WeatherDisplay:10.37,2013-05-14 18:06:00,
2013-05-14 14:11:00,69.1,37.2,29.74,ESE,112,6.9,6.9,31,0.00,CLR,,0.00,WeatherDisplay:10.37,2013-05-14 18:11:00,
2013-05-14 14:16:00,69.4,37.5,29.74,SE,135,7.3,7.3,31,0.00,CLR,,0.00,WeatherDisplay:10.37,2013-05-14 18:16:00,
2013-05-14 14:21:00,69.8,37.8,29.67,SE,135,7.3,7.3,31,0.00,CLR,,0.00,WeatherDisplay:10.37,2013-05-14 18:21:00,
2013-05-14 14:26:00,69.3,37.3,29.67,SE,135,7.3,7.3,31,0.00,CLR,,0.00,WeatherDisplay:10.37,2013-05-14 18:26:00,
2013-05-14 14:31:00,69.4,37.5,29.67,SE,135,7.3,7.3,31,0.00,CLR,,0.00,WeatherDisplay:10.37,2013-05-14 18:31:00,
2013-05-14 14:36:00,69.4,37.5,29.66,ESE,112,7.3,7.3,31,0.00,CLR,,0.00,WeatherDisplay:10.37,2013-05-14 18:36:00,
2013-05-14 14:41:00,69.6,37.6,29.67,SSE,157,7.3,7.3,31,0.00,CLR,,0.00,WeatherDisplay:10.37,2013-05-14 18:41:00,
2013-05-14 14:46:00,70.7,38.6,29.67,ESE,112,7.3,7.3,31,0.00,CLR,,0.00,WeatherDisplay:10.37,2013-05-14 18:46:00,
2013-05-14 14:51:00,70.9,38.7,29.67,SSE,157,7.3,7.3,31,0.00,CLR,,0.00,WeatherDisplay:10.37,2013-05-14 18:51:00,
2013-05-14 14:56:00,70.5,38.4,29.66,East,90,7.3,7.3,31,0.00,CLR,,0.00,WeatherDisplay:10.37,2013-05-14 18:56:00,
2013-05-14 15:01:00,70.2,38.1,29.66,South,180,7.3,7.3,31,0.00,CLR,,0.00,WeatherDisplay:10.37,2013-05-14 19:01:00,
2013-05-14 15:06:00,70.3,38.3,29.66,South,180,7.3,7.3,31,0.00,CLR,,0.00,WeatherDisplay:10.37,2013-05-14 19:06:00,
2013-05-14 15:11:00,70.5,38.4,29.65,SE,135,5.8,5.8,31,0.00,CLR,,0.00,WeatherDisplay:10.37,2013-05-14 19:11:00,
2013-05-14 15:16:00,70.9,38.7,29.66,East,90,5.8,5.8,31,0.00,CLR,,0.00,WeatherDisplay:10.37,2013-05-14 19:16:00,
2013-05-14 15:21:00,70.9,38.7,29.65,SW,225,5.8,5.8,31,0.00,CLR,,0.00,WeatherDisplay:10.37,2013-05-14 19:21:00,
2013-05-14 15:26:00,71.4,39.2,29.65,ENE,67,8.4,8.4,31,0.00,CLR,,0.00,WeatherDisplay:10.37,2013-05-14 19:26:00,
2013-05-14 15:31:00,71.8,39.5,29.65,SSE,157,8.4,8.4,31,0.00,CLR,,0.00,WeatherDisplay:10.37,2013-05-14 19:31:00,
2013-05-14 15:36:00,70.9,38.7,29.66,ESE,112,8.4,8.4,31,0.00,CLR,,0.00,WeatherDisplay:10.37,2013-05-14 19:36:00,
2013-05-14 15:41:00,70.7,38.6,29.65,SE,135,8.4,8.4,31,0.00,CLR,,0.00,WeatherDisplay:10.37,2013-05-14 19:41:00,
2013-05-14 15:46:00,70.9,38.7,29.65,SSE,157,8.4,8.4,31,0.00,CLR,,0.00,WeatherDisplay:10.37,2013-05-14 19:46:00,
2013-05-14 15:51:00,71.1,38.9,29.64,ESE,112,8.4,8.4,31,0.00,CLR,,0.00,WeatherDisplay:10.37,2013-05-14 19:51:00,
2013-05-14 15:56:00,71.1,38.9,29.65,ESE,112,8.4,8.4,31,0.00,CLR,,0.00,WeatherDisplay:10.37,2013-05-14 19:56:00,
2013-05-14 16:01:00,72.3,40.0,29.65,ENE,67,8.4,8.4,31,0.00,CLR,,0.00,WeatherDisplay:10.37,2013-05-14 20:01:00,
2013-05-14 16:06:00,72.5,40.1,29.65,South,180,8.4,8.4,31,0.00,CLR,,0.00,WeatherDisplay:10.37,2013-05-14 20:06:00,
2013-05-14 16:11:00,71.2,39.0,29.64,NE,45,5.8,5.8,31,0.00,CLR,,0.00,WeatherDisplay:10.37,2013-05-14 20:11:00,
2013-05-14 16:16:00,70.9,38.7,29.64,South,180,6.3,6.3,31,0.00,CLR,,0.00,WeatherDisplay:10.37,2013-05-14 20:16:00,
2013-05-14 16:21:00,70.5,38.4,29.64,SSE,157,6.3,6.3,31,0.00,CLR,,0.00,WeatherDisplay:10.37,2013-05-14 20:21:00,
2013-05-14 16:26:00,70.5,38.4,29.64,SE,135,6.9,6.9,31,0.00,CLR,,0.00,WeatherDisplay:10.37,2013-05-14 20:26:00,
2013-05-14 16:31:00,70.2,38.1,29.63,ESE,112,6.9,6.9,31,0.00,CLR,,0.00,WeatherDisplay:10.37,2013-05-14 20:31:00,
2013-05-14 16:36:00,70.3,38.3,29.63,ESE,112,6.9,6.9,31,0.00,CLR,,0.00,WeatherDisplay:10.37,2013-05-14 20:36:00,
2013-05-14 16:41:00,70.5,38.4,29.63,SE,135,6.9,6.9,31,0.00,CLR,,0.00,WeatherDisplay:10.37,2013-05-14 20:41:00,
2013-05-14 16:46:00,71.2,39.9,29.63,SE,135,6.9,6.9,32,0.00,CLR,,0.00,WeatherDisplay:10.37,2013-05-14 20:46:00,
2013-05-14 16:51:00,71.8,40.3,29.63,ESE,112,6.9,6.9,32,0.00,CLR,,0.00,WeatherDisplay:10.37,2013-05-14 20:51:00,
2013-05-14 16:56:00,72.5,40.1,29.63,South,180,6.9,6.9,31,0.00,CLR,,0.00,WeatherDisplay:10.37,2013-05-14 20:56:00,
2013-05-14 17:01:00,72.3,40.0,29.63,ESE,112,6.9,6.9,31,0.00,CLR,,0.00,WeatherDisplay:10.37,2013-05-14 21:01:00,
2013-05-14 17:06:00,71.8,39.5,29.62,ESE,112,6.9,6.9,31,0.00,CLR,,0.00,WeatherDisplay:10.37,2013-05-14 21:06:00,
2013-05-14 17:11:00,71.8,40.3,29.63,ESE,112,5.8,5.8,32,0.00,CLR,,0.00,WeatherDisplay:10.37,2013-05-14 21:11:00,
2013-05-14 17:16:00,72.0,40.5,29.63,East,90,6.9,6.9,32,0.00,CLR,,0.00,WeatherDisplay:10.37,2013-05-14 21:16:00,
2013-05-14 17:21:00,68.7,37.7,29.63,ENE,67,6.9,6.9,32,0.00,CLR,,0.00,WeatherDisplay:10.37,2013-05-14 21:21:00,
2013-05-14 17:26:00,68.7,37.7,29.63,NNE,22,7.6,7.6,32,0.00,CLR,,0.00,WeatherDisplay:10.37,2013-05-14 21:26:00,
2013-05-14 17:31:00,68.5,37.5,29.63,ESE,112,8.1,8.1,32,0.00,CLR,,0.00,WeatherDisplay:10.37,2013-05-14 21:31:00,
2013-05-14 17:36:00,68.0,37.0,29.63,East,90,8.1,8.1,32,0.00,CLR,,0.00,WeatherDisplay:10.37,2013-05-14 21:36:00,
2013-05-14 17:41:00,68.4,37.3,29.62,SE,135,8.1,8.1,32,0.00,CLR,,0.00,WeatherDisplay:10.37,2013-05-14 21:41:00,
2013-05-14 17:46:00,68.5,37.5,29.62,SSE,157,8.1,8.1,32,0.00,CLR,,0.00,WeatherDisplay:10.37,2013-05-14 21:46:00,
2013-05-14 17:52:00,68.5,37.5,29.67,SSE,157,8.1,8.1,32,0.00,CLR,,0.00,WeatherDisplay:10.37,2013-05-14 21:52:00,
2013-05-14 17:57:00,68.0,37.0,29.67,SSE,157,8.1,8.1,32,0.00,CLR,,0.00,WeatherDisplay:10.37,2013-05-14 21:57:00,
2013-05-14 18:02:00,68.0,37.0,29.61,NE,45,8.1,8.1,32,0.00,CLR,,0.00,WeatherDisplay:10.37,2013-05-14 22:02:00,
2013-05-14 18:07:00,67.5,35.7,29.67,ENE,67,8.1,8.1,31,0.00,CLR,,0.00,WeatherDisplay:10.37,2013-05-14 22:07:00,
2013-05-14 18:12:00,66.7,35.1,29.66,East,90,4.7,4.7,31,0.00,CLR,,0.00,WeatherDisplay:10.37,2013-05-14 22:12:00,
2013-05-14 18:17:00,66.6,35.0,29.65,ESE,112,6.3,6.3,31,0.00,CLR,,0.00,WeatherDisplay:10.37,2013-05-14 22:17:00,
2013-05-14 18:22:00,65.8,34.3,29.65,North,0,6.3,6.3,31,0.00,CLR,,0.00,WeatherDisplay:10.37,2013-05-14 22:22:00,
2013-05-14 18:27:00,65.3,33.9,29.66,ENE,67,6.3,6.3,31,0.00,CLR,,0.00,WeatherDisplay:10.37,2013-05-14 22:27:00,
2013-05-14 18:32:00,64.6,33.2,29.67,SE,135,6.3,6.3,31,0.00,CLR,,0.00,WeatherDisplay:10.37,2013-05-14 22:32:00,
2013-05-14 18:37:00,64.6,33.2,29.67,East,90,6.3,6.3,31,0.00,CLR,,0.00,WeatherDisplay:10.37,2013-05-14 22:37:00,
2013-05-14 18:42:00,64.6,33.2,29.67,East,90,6.3,6.3,31,0.00,CLR,,0.00,WeatherDisplay:10.37,2013-05-14 22:42:00,
2013-05-14 18:47:00,64.2,32.9,29.67,ESE,112,6.3,6.3,31,0.00,CLR,,0.00,WeatherDisplay:10.37,2013-05-14 22:47:00,
2013-05-14 18:52:00,64.2,32.9,29.66,ESE,112,6.9,6.9,31,0.00,CLR,,0.00,WeatherDisplay:10.37,2013-05-14 22:52:00,
2013-05-14 18:57:00,64.2,32.9,29.66,SE,135,9.5,9.5,31,0.00,CLR,,0.00,WeatherDisplay:10.37,2013-05-14 22:57:00,
2013-05-14 19:02:00,64.4,33.1,29.66,ESE,112,9.5,9.5,31,0.00,CLR,,0.00,WeatherDisplay:10.37,2013-05-14 23:02:00,
2013-05-14 19:07:00,64.2,32.9,29.66,ESE,112,9.5,9.5,31,0.00,CLR,,0.00,WeatherDisplay:10.37,2013-05-14 23:07:00,
2013-05-14 19:12:00,63.9,33.4,29.66,ESE,112,6.9,6.9,32,0.00,CLR,,0.00,WeatherDisplay:10.37,2013-05-14 23:12:00,
2013-05-14 19:17:00,63.9,33.4,29.66,ESE,112,6.9,6.9,32,0.00,CLR,,0.00,WeatherDisplay:10.37,2013-05-14 23:17:00,
2013-05-14 19:22:00,63.5,33.9,29.65,East,90,6.9,6.9,33,0.00,CLR,,0.00,WeatherDisplay:10.37,2013-05-14 23:22:00,
2013-05-14 19:27:00,63.3,33.7,29.65,South,180,6.9,6.9,33,0.00,CLR,,0.00,WeatherDisplay:10.37,2013-05-14 23:27:00,
2013-05-14 19:32:00,63.3,33.7,29.63,South,180,6.9,6.9,33,0.00,CLR,,0.00,WeatherDisplay:10.37,2013-05-14 23:32:00,
2013-05-14 19:37:00,63.0,33.4,29.62,ENE,67,6.9,6.9,33,0.00,CLR,,0.00,WeatherDisplay:10.37,2013-05-14 23:37:00,
2013-05-14 19:42:00,62.4,32.9,29.62,SE,135,6.9,6.9,33,0.00,CLR,,0.00,WeatherDisplay:10.37,2013-05-14 23:42:00,
2013-05-14 19:47:00,62.1,32.6,29.62,ENE,67,6.9,6.9,33,0.00,CLR,,0.00,WeatherDisplay:10.37,2013-05-14 23:47:00,
2013-05-14 19:52:00,61.9,32.4,29.61,SSE,157,6.9,6.9,33,0.00,CLR,,0.00,WeatherDisplay:10.37,2013-05-14 23:52:00,
2013-05-14 19:57:00,61.7,33.0,29.62,ESE,112,6.9,6.9,34,0.00,CLR,,0.00,WeatherDisplay:10.37,2013-05-14 23:57:00,
2013-05-14 20:02:00,61.5,32.9,29.61,SE,135,8.1,8.1,34,0.00,CLR,,0.00,WeatherDisplay:10.37,2013-05-15 00:02:00,
2013-05-14 20:07:00,61.3,33.4,29.62,SE,135,8.1,8.1,35,0.00,CLR,,0.00,WeatherDisplay:10.37,2013-05-15 00:07:00,
2013-05-14 20:12:00,61.2,33.3,29.61,ESE,112,4.6,4.6,35,0.00,CLR,,0.00,WeatherDisplay:10.37,2013-05-15 00:12:00,
2013-05-14 20:17:00,61.0,33.1,29.62,ESE,112,4.6,4.6,35,0.00,CLR,,0.00,WeatherDisplay:10.37,2013-05-15 00:17:00,
2013-05-14 20:22:00,61.0,33.8,29.61,ESE,112,4.6,4.6,36,0.00,CLR,,0.00,WeatherDisplay:10.37,2013-05-15 00:22:00,
2013-05-14 20:27:00,60.6,33.5,29.61,South,180,4.6,4.6,36,0.00,CLR,,0.00,WeatherDisplay:10.37,2013-05-15 00:27:00,
2013-05-14 20:32:00,60.6,33.5,29.61,South,180,4.6,4.6,36,0.00,CLR,,0.00,WeatherDisplay:10.37,2013-05-15 00:32:00,
2013-05-14 20:37:00,59.9,32.9,29.62,WSW,247,5.8,5.8,36,0.00,CLR,,0.00,WeatherDisplay:10.37,2013-05-15 00:37:00,
2013-05-14 20:42:00,59.5,33.2,29.62,SE,135,5.8,5.8,37,0.00,CLR,,0.00,WeatherDisplay:10.37,2013-05-15 00:42:00,
2013-05-14 20:47:00,59.4,33.1,29.62,ENE,67,5.8,5.8,37,0.00,CLR,,0.00,WeatherDisplay:10.37,2013-05-15 00:47:00,
2013-05-14 20:52:00,59.2,32.9,29.62,East,90,5.8,5.8,37,0.00,CLR,,0.00,WeatherDisplay:10.37,2013-05-15 00:52:00,
2013-05-14 20:57:00,58.8,32.6,29.62,South,180,5.8,5.8,37,0.00,CLR,,0.00,WeatherDisplay:10.37,2013-05-15 00:57:00,
2013-05-14 21:02:00,58.6,31.7,29.61,SSE,157,5.8,5.8,36,0.00,CLR,,0.00,WeatherDisplay:10.37,2013-05-15 01:02:00,
2013-05-14 21:07:00,58.3,31.4,29.59,ESE,112,5.8,5.8,36,0.00,CLR,,0.00,WeatherDisplay:10.37,2013-05-15 01:07:00,
2013-05-14 21:12:00,58.1,31.3,29.59,East,90,5.8,5.8,36,0.00,CLR,,0.00,WeatherDisplay:10.37,2013-05-15 01:12:00,
2013-05-14 21:17:00,57.9,31.1,29.60,ESE,112,5.8,5.8,36,0.00,CLR,,0.00,WeatherDisplay:10.37,2013-05-15 01:17:00,
2013-05-14 21:22:00,57.7,30.9,29.60,ESE,112,5.8,5.8,36,0.00,CLR,,0.00,WeatherDisplay:10.37,2013-05-15 01:22:00,
2013-05-14 21:27:00,57.7,30.9,29.58,ESE,112,5.8,5.8,36,0.00,CLR,,0.00,WeatherDisplay:10.37,2013-05-15 01:27:00,
2013-05-14 21:32:00,57.2,30.5,29.58,SE,135,5.8,5.8,36,0.00,CLR,,0.00,WeatherDisplay:10.37,2013-05-15 01:32:00,
2013-05-14 21:37:00,57.0,30.3,29.58,SW,225,5.8,5.8,36,0.00,CLR,,0.00,WeatherDisplay:10.37,2013-05-15 01:37:00,
2013-05-14 21:42:00,56.8,30.1,29.58,SE,135,5.8,5.8,36,0.00,CLR,,0.00,WeatherDisplay:10.37,2013-05-15 01:42:00,
2013-05-14 21:47:00,56.5,29.8,29.57,SSE,157,5.8,5.8,36,0.00,CLR,,0.00,WeatherDisplay:10.37,2013-05-15 01:47:00,
2013-05-14 21:52:00,56.5,29.8,29.56,SSE,157,5.8,5.8,36,0.00,CLR,,0.00,WeatherDisplay:10.37,2013-05-15 01:52:00,
2013-05-14 21:57:00,56.5,29.8,29.57,SSE,157,5.8,5.8,36,0.00,CLR,,0.00,WeatherDisplay:10.37,2013-05-15 01:57:00,
2013-05-14 22:02:00,56.5,29.8,29.58,SSE,157,5.8,5.8,36,0.00,CLR,,0.00,WeatherDisplay:10.37,2013-05-15 02:02:00,
2013-05-14 22:07:00,55.0,28.5,29.57,SSE,157,5.8,5.8,36,0.00,CLR,,0.00,WeatherDisplay:10.37,2013-05-15 02:07:00,
2013-05-14 22:12:00,55.9,29.3,29.58,SSE,157,2.6,2.6,36,0.00,CLR,,0.00,WeatherDisplay:10.37,2013-05-15 02:12:00,
2013-05-14 22:17:00,55.9,29.3,29.61,NE,45,2.6,2.6,36,0.00,CLR,,0.00,WeatherDisplay:10.37,2013-05-15 02:17:00,
2013-05-14 22:22:00,55.9,28.7,29.59,SE,135,2.6,2.6,35,0.00,CLR,,0.00,WeatherDisplay:10.37,2013-05-15 02:22:00,
2013-05-14 22:27:00,55.9,28.7,29.60,SSE,157,3.5,3.5,35,0.00,CLR,,0.00,WeatherDisplay:10.37,2013-05-15 02:27:00,
2013-05-14 22:32:00,55.9,28.7,29.60,South,180,3.5,3.5,35,0.00,CLR,,0.00,WeatherDisplay:10.37,2013-05-15 02:32:00,
2013-05-14 22:37:00,55.9,27.9,29.62,South,180,3.5,3.5,34,0.00,CLR,,0.00,WeatherDisplay:10.37,2013-05-15 02:37:00,
2013-05-14 22:42:00,55.9,28.7,29.62,SSE,157,3.5,3.5,35,0.00,CLR,,0.00,WeatherDisplay:10.37,2013-05-15 02:42:00,
2013-05-14 22:47:00,55.9,28.7,29.62,SSE,157,3.5,3.5,35,0.00,CLR,,0.00,WeatherDisplay:10.37,2013-05-15 02:47:00,
2013-05-14 22:52:00,55.9,29.3,29.62,SE,135,3.5,3.5,36,0.00,CLR,,0.00,WeatherDisplay:10.37,2013-05-15 02:52:00,
2013-05-14 22:57:00,55.8,29.2,29.62,SW,225,3.5,3.5,36,0.00,CLR,,0.00,WeatherDisplay:10.37,2013-05-15 02:57:00,
2013-05-14 23:02:00,55.8,29.2,29.63,SSW,202,3.8,3.8,36,0.00,CLR,,0.00,WeatherDisplay:10.37,2013-05-15 03:02:00,
2013-05-14 23:07:00,55.8,29.2,29.61,SSE,157,3.6,3.6,36,0.00,CLR,,0.00,WeatherDisplay:10.37,2013-05-15 03:07:00,
2013-05-14 23:12:00,55.6,29.0,29.60,ENE,67,5.8,5.8,36,0.00,CLR,,0.00,WeatherDisplay:10.37,2013-05-15 03:12:00,
2013-05-14 23:17:00,55.6,29.0,29.60,SSE,157,5.8,5.8,36,0.00,CLR,,0.00,WeatherDisplay:10.37,2013-05-15 03:17:00,
2013-05-14 23:22:00,55.2,28.7,29.61,SSE,157,5.8,5.8,36,0.00,CLR,,0.00,WeatherDisplay:10.37,2013-05-15 03:22:00,
2013-05-14 23:27:00,55.0,28.5,29.60,SSE,157,5.8,5.8,36,0.00,CLR,,0.00,WeatherDisplay:10.37,2013-05-15 03:27:00,
2013-05-14 23:32:00,54.7,27.5,29.62,NW,315,5.8,5.8,35,0.00,CLR,,0.00,WeatherDisplay:10.37,2013-05-15 03:32:00,
2013-05-14 23:37:00,54.3,27.2,29.62,South,180,5.8,5.8,35,0.00,CLR,,0.00,WeatherDisplay:10.37,2013-05-15 03:37:00,
2013-05-14 23:42:00,54.1,27.1,29.62,South,180,5.8,5.8,35,0.00,CLR,,0.00,WeatherDisplay:10.37,2013-05-15 03:42:00,
2013-05-14 23:47:00,54.0,26.9,29.61,SE,135,5.8,5.8,35,0.00,CLR,,0.00,WeatherDisplay:10.37,2013-05-15 03:47:00,
2013-05-14 23:52:00,54.0,26.9,29.60,SSE,157,5.8,5.8,35,0.00,CLR,,0.00,WeatherDisplay:10.37,2013-05-15 03:52:00,
2013-05-14 23:57:00,54.0,26.9,29.59,SE,135,5.8,5.8,35,0.00,CLR,,0.00,WeatherDisplay:10.37,2013-05-15 03:57:00,